createdAt,value
2022-10-12T00:00:31.553Z,15.02
2022-10-12T00:10:33.070Z,14.98
2022-10-12T00:20:34.546Z,14.95
2022-10-12T00:30:37.606Z,14.87
2022-10-12T00:40:38.979Z,14.90
2022-10-12T00:50:40.356Z,14.77
2022-10-12T01:00:41.845Z,14.52
2022-10-12T01:10:43.258Z,14.29
2022-10-12T01:20:53.744Z,14.38
2022-10-12T01:31:02.814Z,14.32
2022-10-12T01:41:24.834Z,14.21
2022-10-12T01:51:55.716Z,14.24
2022-10-12T02:02:18.643Z,14.33
2022-10-12T02:12:21.175Z,14.38
2022-10-12T02:22:23.909Z,14.30
2022-10-12T02:32:49.975Z,14.24
2022-10-12T02:43:10.777Z,14.12
2022-10-12T02:53:13.009Z,14.22
2022-10-12T03:03:14.490Z,14.24
2022-10-12T03:13:15.964Z,14.14
2022-10-12T03:23:17.349Z,14.11
2022-10-12T03:33:19.330Z,14.22
2022-10-12T03:43:20.705Z,14.26
2022-10-12T03:53:22.191Z,14.27
2022-10-12T04:03:23.552Z,14.24
2022-10-12T04:13:25.094Z,14.06
2022-10-12T04:23:26.564Z,14.23
2022-10-12T04:33:28.088Z,14.18
2022-10-12T04:43:29.497Z,14.17
2022-10-12T04:53:31.439Z,14.23
2022-10-12T05:03:32.971Z,14.16
2022-10-12T05:13:34.362Z,14.25
2022-10-12T05:23:35.878Z,14.43
2022-10-12T05:33:37.314Z,14.41
2022-10-12T05:43:38.692Z,14.23
2022-10-12T05:53:40.053Z,14.18
2022-10-12T06:03:41.489Z,14.04
2022-10-12T06:13:42.864Z,14.17
2022-10-12T06:23:44.260Z,14.25
2022-10-12T06:33:45.818Z,14.29
2022-10-12T06:43:47.183Z,14.33
2022-10-12T06:53:48.542Z,14.46
2022-10-12T07:03:50.040Z,15.92
2022-10-12T07:13:51.407Z,17.01
2022-10-12T07:23:52.980Z,17.89
2022-10-12T07:33:54.539Z,18.63
2022-10-12T07:43:56.652Z,19.31
2022-10-12T07:54:00.038Z,19.60
2022-10-12T08:04:02.205Z,20.19
2022-10-12T08:14:03.774Z,20.84
2022-10-12T08:24:05.400Z,20.94
2022-10-12T08:34:06.893Z,21.43
2022-10-12T08:44:23.398Z,22.14
2022-10-12T08:54:27.401Z,22.57
2022-10-12T09:04:52.614Z,22.37
2022-10-12T09:14:57.269Z,22.73
2022-10-12T09:24:58.786Z,24.49
2022-10-12T09:35:00.196Z,25.42
2022-10-12T09:45:03.143Z,24.88
2022-10-12T09:55:23.902Z,22.52
2022-10-12T10:05:35.072Z,21.83
2022-10-12T10:15:39.041Z,21.42
2022-10-12T10:25:40.423Z,21.00
2022-10-12T10:36:02.654Z,20.71
2022-10-12T10:46:04.137Z,20.40
2022-10-12T10:56:07.881Z,20.43
2022-10-12T11:06:17.861Z,20.19
2022-10-12T11:16:51.182Z,19.95
2022-10-12T11:26:57.003Z,19.91
2022-10-12T11:37:18.852Z,19.91
2022-10-12T11:47:36.195Z,20.00
2022-10-12T11:57:37.821Z,19.93
2022-10-12T12:07:45.368Z,19.92
2022-10-12T12:18:04.315Z,19.85
2022-10-12T12:28:16.319Z,19.85
2022-10-12T12:38:22.009Z,19.88
2022-10-12T12:48:38.598Z,19.77
2022-10-12T12:58:54.540Z,19.75
2022-10-12T13:09:20.217Z,19.80
2022-10-12T13:19:22.850Z,19.94
2022-10-12T13:29:36.559Z,19.79
2022-10-12T13:39:43.177Z,19.81
2022-10-12T13:49:44.662Z,19.73
2022-10-12T13:59:46.047Z,19.79
2022-10-12T14:20:27.872Z,19.82
2022-10-12T14:30:34.806Z,19.77
2022-10-12T14:40:39.223Z,19.60
2022-10-12T14:50:40.666Z,19.71
2022-10-12T15:00:42.102Z,19.66
2022-10-12T15:10:43.572Z,19.74
2022-10-12T15:20:49.431Z,19.80
2022-10-12T15:31:15.851Z,19.87
2022-10-12T15:41:21.620Z,19.89
2022-10-12T15:51:23.914Z,19.84
2022-10-12T16:01:25.390Z,19.80
2022-10-12T16:11:29.731Z,19.79
2022-10-12T16:21:33.612Z,19.76
2022-10-12T16:31:35.055Z,19.52
2022-10-12T16:41:36.771Z,19.65
2022-10-12T16:51:38.792Z,19.53
2022-10-12T17:01:41.387Z,19.45
2022-10-12T17:11:42.780Z,19.44
2022-10-12T17:21:44.552Z,19.40
2022-10-12T17:31:46.265Z,19.32
2022-10-12T17:41:47.877Z,19.19
2022-10-12T17:51:50.757Z,19.03
2022-10-12T18:01:52.560Z,18.82
2022-10-12T18:11:54.312Z,18.83
2022-10-12T18:21:58.306Z,18.63
2022-10-12T18:32:00.709Z,18.55
2022-10-12T18:42:02.101Z,18.53
2022-10-12T18:52:03.743Z,18.43
2022-10-12T19:02:05.352Z,18.62
2022-10-12T19:12:16.445Z,18.46
2022-10-12T19:22:18.339Z,18.29
2022-10-12T19:32:23.292Z,18.27
2022-10-12T19:42:24.678Z,18.10
2022-10-12T19:52:26.191Z,18.08
2022-10-12T20:02:27.625Z,17.97
2022-10-12T20:12:29.051Z,17.83
2022-10-12T20:22:33.376Z,17.64
2022-10-12T20:32:37.053Z,17.82
2022-10-12T20:42:38.543Z,17.59
2022-10-12T20:52:45.313Z,17.53
2022-10-12T21:02:46.710Z,17.51
2022-10-12T21:12:48.260Z,17.32
2022-10-12T21:22:49.828Z,17.69
2022-10-12T21:32:51.786Z,17.53
2022-10-12T21:42:53.176Z,17.70
2022-10-12T21:53:00.008Z,17.54
2022-10-12T22:03:01.761Z,17.59
2022-10-12T22:13:03.140Z,17.69
2022-10-12T22:23:08.219Z,17.55
2022-10-12T22:33:09.926Z,17.56
2022-10-12T22:43:11.557Z,17.43
2022-10-12T22:53:13.074Z,17.48
2022-10-12T23:03:14.568Z,17.46
2022-10-12T23:13:16.073Z,17.47
2022-10-12T23:23:17.698Z,17.47
2022-10-12T23:33:19.317Z,17.46
2022-10-12T23:43:20.799Z,17.21
2022-10-12T23:53:22.701Z,17.20
